createdAt,value
2023-05-06T00:00:35.480Z,3.60
2023-05-06T00:01:35.793Z,2.10
2023-05-06T00:02:36.147Z,2.70
2023-05-06T00:03:36.529Z,2.30
2023-05-06T00:04:36.683Z,3.10
2023-05-06T00:05:36.986Z,1.80
2023-05-06T00:06:37.291Z,2.20
2023-05-06T00:07:37.610Z,2.20
2023-05-06T00:08:37.934Z,2.00
2023-05-06T00:09:38.248Z,2.20
2023-05-06T00:10:38.579Z,1.80
2023-05-06T00:11:38.887Z,3.20
2023-05-06T00:12:39.268Z,4.30
2023-05-06T00:13:39.574Z,2.00
2023-05-06T00:14:39.862Z,3.80
2023-05-06T00:15:40.180Z,2.70
2023-05-06T00:16:40.557Z,3.30
2023-05-06T00:17:40.787Z,2.90
2023-05-06T00:18:41.078Z,2.10
2023-05-06T00:19:41.381Z,2.40
2023-05-06T00:20:41.736Z,3.50
2023-05-06T00:21:42.027Z,3.90
2023-05-06T00:22:42.381Z,3.30
2023-05-06T00:23:42.678Z,2.80
2023-05-06T00:24:42.990Z,2.40
2023-05-06T00:25:43.278Z,2.70
2023-05-06T00:26:43.599Z,2.60
2023-05-06T00:27:43.933Z,2.30
2023-05-06T00:28:44.228Z,3.10
2023-05-06T00:29:44.542Z,2.50
2023-05-06T00:30:44.874Z,1.80
2023-05-06T00:31:45.386Z,3.10
2023-05-06T00:32:45.502Z,3.70
2023-05-06T00:33:45.784Z,2.30
2023-05-06T00:34:46.103Z,3.30
2023-05-06T00:35:46.438Z,3.10
2023-05-06T00:36:46.747Z,3.00
2023-05-06T00:37:47.062Z,2.50
2023-05-06T00:38:47.396Z,3.40
2023-05-06T00:39:47.705Z,3.00
2023-05-06T00:40:48.020Z,2.80
2023-05-06T00:41:48.345Z,2.30
2023-05-06T00:42:48.634Z,2.40
2023-05-06T00:43:48.957Z,2.20
2023-05-06T00:44:49.304Z,3.30
2023-05-06T00:45:49.666Z,3.10
2023-05-06T00:46:49.965Z,2.80
2023-05-06T00:47:50.329Z,2.10
2023-05-06T00:48:50.625Z,4.10
2023-05-06T00:49:50.965Z,2.30
2023-05-06T00:50:51.275Z,2.30
2023-05-06T00:51:51.586Z,2.60
2023-05-06T00:52:51.946Z,2.60
2023-05-06T00:53:52.265Z,3.10
2023-05-06T00:54:52.610Z,2.50
2023-05-06T00:55:52.774Z,4.10
2023-05-06T00:56:53.080Z,2.50
2023-05-06T00:57:53.410Z,3.30
2023-05-06T00:58:53.736Z,4.70
2023-05-06T00:59:53.947Z,2.70
2023-05-06T01:00:54.309Z,2.70
2023-05-06T01:01:54.583Z,3.80
2023-05-06T01:02:54.920Z,3.20
2023-05-06T01:03:55.635Z,2.50
2023-05-06T01:04:55.541Z,2.20
2023-05-06T01:05:55.841Z,2.30
2023-05-06T01:06:56.175Z,2.20
2023-05-06T01:07:56.493Z,2.40
2023-05-06T01:08:56.819Z,3.70
2023-05-06T01:09:57.166Z,2.10
2023-05-06T01:10:57.444Z,3.00
2023-05-06T01:11:57.757Z,3.00
2023-05-06T01:12:58.104Z,2.20
2023-05-06T01:13:58.519Z,1.90
2023-05-06T01:14:58.680Z,2.20
2023-05-06T01:15:59.000Z,2.30
2023-05-06T01:16:59.331Z,3.00
2023-05-06T01:17:59.707Z,2.90
2023-05-06T01:18:59.842Z,2.70
2023-05-06T01:20:00.236Z,3.10
2023-05-06T01:21:00.520Z,2.10
2023-05-06T01:22:00.811Z,2.70
2023-05-06T01:23:01.153Z,2.90
2023-05-06T01:24:01.459Z,2.90
2023-05-06T01:25:01.776Z,2.60
2023-05-06T01:26:02.068Z,3.70
2023-05-06T01:27:02.432Z,2.40
2023-05-06T01:28:02.773Z,2.90
2023-05-06T01:29:03.043Z,2.60
2023-05-06T01:30:03.368Z,2.40
2023-05-06T01:31:03.771Z,4.20
2023-05-06T01:32:03.963Z,2.40
2023-05-06T01:33:04.317Z,1.80
2023-05-06T01:34:04.484Z,2.90
2023-05-06T01:35:04.821Z,2.50
2023-05-06T01:36:05.153Z,4.20
2023-05-06T01:37:05.470Z,2.00
2023-05-06T01:38:05.790Z,2.80
2023-05-06T01:39:06.094Z,2.50
2023-05-06T01:40:06.420Z,2.00
2023-05-06T01:41:06.764Z,2.00
2023-05-06T01:42:07.089Z,3.50
2023-05-06T01:43:07.424Z,2.30
2023-05-06T01:44:07.719Z,3.10
2023-05-06T01:45:08.367Z,2.30
2023-05-06T01:46:08.346Z,1.70
2023-05-06T01:47:08.639Z,4.20
2023-05-06T01:48:09.002Z,3.00
2023-05-06T01:49:09.346Z,3.20
2023-05-06T01:50:09.643Z,1.80
2023-05-06T01:51:09.989Z,2.80
2023-05-06T01:52:10.318Z,3.10
2023-05-06T01:53:10.618Z,2.60
2023-05-06T01:54:10.929Z,2.90
2023-05-06T01:55:11.444Z,2.70
2023-05-06T01:56:11.561Z,2.50
2023-05-06T01:57:11.848Z,3.10
2023-05-06T01:58:12.147Z,2.80
2023-05-06T01:59:12.460Z,3.50
2023-05-06T02:00:12.803Z,2.80
2023-05-06T02:01:13.167Z,3.60
2023-05-06T02:02:13.453Z,2.40
2023-05-06T02:03:13.809Z,3.70
2023-05-06T02:04:14.111Z,3.40
2023-05-06T02:05:14.451Z,3.30
2023-05-06T02:06:14.753Z,2.30
2023-05-06T02:07:15.074Z,4.30
2023-05-06T02:08:15.375Z,2.30
2023-05-06T02:09:15.681Z,3.10
2023-05-06T02:10:15.974Z,2.40
2023-05-06T02:11:16.296Z,2.70
2023-05-06T02:12:16.588Z,3.00
2023-05-06T02:13:16.995Z,3.20
2023-05-06T02:14:17.189Z,3.60
2023-05-06T02:15:17.519Z,2.50
2023-05-06T02:16:17.881Z,2.70
2023-05-06T02:17:18.076Z,2.90
2023-05-06T02:18:18.395Z,2.90
2023-05-06T02:19:18.718Z,2.90
2023-05-06T02:20:19.018Z,3.00
2023-05-06T02:21:19.325Z,3.10
2023-05-06T02:22:19.633Z,2.80
2023-05-06T02:23:19.976Z,3.10
2023-05-06T02:24:20.262Z,2.60
2023-05-06T02:25:20.568Z,2.40
2023-05-06T02:26:20.864Z,2.70
2023-05-06T02:27:21.166Z,3.30
2023-05-06T02:28:21.481Z,2.40
2023-05-06T02:29:21.771Z,5.20
2023-05-06T02:30:22.079Z,4.00
2023-05-06T02:31:22.390Z,2.90
2023-05-06T02:32:22.757Z,3.00
2023-05-06T02:33:22.944Z,3.50
2023-05-06T02:34:23.183Z,2.30
2023-05-06T02:35:23.486Z,2.30
2023-05-06T02:36:23.747Z,1.80
2023-05-06T02:37:24.040Z,3.40
2023-05-06T02:38:24.287Z,2.60
2023-05-06T02:39:24.558Z,2.60
2023-05-06T02:40:24.770Z,3.60
2023-05-06T02:41:25.063Z,2.00
2023-05-06T02:42:25.358Z,3.00
2023-05-06T02:43:25.545Z,2.50
2023-05-06T02:44:25.899Z,2.40
2023-05-06T02:45:26.101Z,3.50
2023-05-06T02:46:26.425Z,2.50
2023-05-06T02:47:26.645Z,3.30
2023-05-06T02:48:26.889Z,4.30
2023-05-06T02:49:27.222Z,2.30
2023-05-06T02:50:27.580Z,1.80
2023-05-06T02:51:27.911Z,2.40
2023-05-06T02:52:28.120Z,3.90
2023-05-06T02:53:28.459Z,2.50
2023-05-06T02:54:28.781Z,2.40
2023-05-06T02:55:29.133Z,3.70
2023-05-06T02:56:29.462Z,3.70
2023-05-06T02:57:29.771Z,3.30
2023-05-06T02:58:30.086Z,4.70
2023-05-06T02:59:30.399Z,3.40
2023-05-06T03:00:30.708Z,2.50
2023-05-06T03:01:31.057Z,2.80
2023-05-06T03:02:31.349Z,3.40
2023-05-06T03:03:31.627Z,3.60
2023-05-06T03:04:32.016Z,3.20
2023-05-06T03:05:32.281Z,4.10
2023-05-06T03:06:32.590Z,2.90
2023-05-06T03:07:32.897Z,3.60
2023-05-06T03:08:33.183Z,2.50
2023-05-06T03:09:33.520Z,3.40
2023-05-06T03:10:33.843Z,3.00
2023-05-06T03:11:34.123Z,3.50
2023-05-06T03:12:34.492Z,2.90
2023-05-06T03:13:34.779Z,2.90
2023-05-06T03:14:35.119Z,3.50
2023-05-06T03:15:35.421Z,3.50
2023-05-06T03:16:35.745Z,3.60
2023-05-06T03:17:36.072Z,3.10
2023-05-06T03:18:36.288Z,3.90
2023-05-06T03:19:36.620Z,3.00
2023-05-06T03:20:36.930Z,2.50
2023-05-06T03:21:37.352Z,4.10
2023-05-06T03:22:37.546Z,3.10
2023-05-06T03:23:37.879Z,3.40
2023-05-06T03:24:38.219Z,3.00
2023-05-06T03:25:38.553Z,2.70
2023-05-06T03:26:38.848Z,2.60
2023-05-06T03:27:39.172Z,4.00
2023-05-06T03:28:39.507Z,3.40
2023-05-06T03:29:39.840Z,3.00
2023-05-06T03:30:40.140Z,4.90
2023-05-06T03:31:40.498Z,2.90
2023-05-06T03:32:40.816Z,2.70
2023-05-06T03:33:41.144Z,4.00
2023-05-06T03:34:41.436Z,2.70
2023-05-06T03:35:41.780Z,4.20
2023-05-06T03:36:42.090Z,3.10
2023-05-06T03:37:42.410Z,3.10
2023-05-06T03:38:42.741Z,2.90
2023-05-06T03:39:43.056Z,2.40
2023-05-06T03:40:43.436Z,3.00
2023-05-06T03:41:43.727Z,2.90
2023-05-06T03:42:44.065Z,3.30
2023-05-06T03:43:44.381Z,3.80
2023-05-06T03:44:44.711Z,2.80
2023-05-06T03:45:44.949Z,3.00
2023-05-06T03:46:45.283Z,2.60
2023-05-06T03:47:45.678Z,3.40
2023-05-06T03:48:45.851Z,3.30
2023-05-06T03:49:46.179Z,3.20
2023-05-06T03:50:46.510Z,2.50
2023-05-06T03:51:46.898Z,3.80
2023-05-06T03:52:56.112Z,4.00
2023-05-06T03:53:47.404Z,3.60
2023-05-06T03:54:47.723Z,4.00
2023-05-06T03:55:47.952Z,3.00
2023-05-06T03:56:48.292Z,2.90
2023-05-06T03:57:48.496Z,3.80
2023-05-06T03:58:48.771Z,3.70
2023-05-06T03:59:49.081Z,3.40
2023-05-06T04:00:49.434Z,2.70
2023-05-06T04:01:49.653Z,3.00
2023-05-06T04:02:50.008Z,5.60
2023-05-06T04:03:50.291Z,3.60
2023-05-06T04:04:50.450Z,3.00
2023-05-06T04:05:50.805Z,4.20
2023-05-06T04:06:50.996Z,3.10
2023-05-06T04:07:51.261Z,3.10
2023-05-06T04:08:51.508Z,3.20
2023-05-06T04:09:51.842Z,3.80
2023-05-06T04:10:52.065Z,3.30
2023-05-06T04:11:52.423Z,3.10
2023-05-06T04:12:52.738Z,3.10
2023-05-06T04:13:52.968Z,3.50
2023-05-06T04:14:53.318Z,3.50
2023-05-06T04:15:53.562Z,4.60
2023-05-06T04:16:53.861Z,4.20
2023-05-06T04:17:54.241Z,3.40
2023-05-06T04:18:54.534Z,4.40
2023-05-06T04:19:54.878Z,3.50
2023-05-06T04:20:55.216Z,3.50
2023-05-06T04:21:55.537Z,3.20
2023-05-06T04:22:55.858Z,4.40
2023-05-06T04:23:56.214Z,4.00
2023-05-06T04:24:56.469Z,3.30
2023-05-06T04:25:56.658Z,3.60
2023-05-06T04:26:56.998Z,3.90
2023-05-06T04:27:57.313Z,4.50
2023-05-06T04:28:57.667Z,3.30
2023-05-06T04:29:57.877Z,3.40
2023-05-06T04:30:58.225Z,2.90
2023-05-06T04:31:58.593Z,3.60
2023-05-06T04:32:58.852Z,3.50
2023-05-06T04:33:59.146Z,3.40
2023-05-06T04:34:59.495Z,3.00
2023-05-06T04:35:59.822Z,3.90
2023-05-06T04:37:00.152Z,3.40
2023-05-06T04:38:00.499Z,4.30
2023-05-06T04:39:00.828Z,3.60
2023-05-06T04:40:01.188Z,3.70
2023-05-06T04:41:01.408Z,3.30
2023-05-06T04:42:01.612Z,3.30
2023-05-06T04:43:01.969Z,3.70
2023-05-06T04:44:02.206Z,3.70
2023-05-06T04:45:02.448Z,4.10
2023-05-06T04:46:02.696Z,3.20
2023-05-06T04:47:02.878Z,4.20
2023-05-06T04:48:03.256Z,3.90
2023-05-06T04:49:03.442Z,3.70
2023-05-06T04:50:03.783Z,3.90
2023-05-06T04:51:04.000Z,4.00
2023-05-06T04:52:04.365Z,3.40
2023-05-06T04:53:04.596Z,4.60
2023-05-06T04:54:04.824Z,3.80
2023-05-06T04:55:05.040Z,3.50
2023-05-06T04:56:05.372Z,3.00
2023-05-06T04:57:05.633Z,4.00
2023-05-06T04:58:05.855Z,4.00
2023-05-06T04:59:06.086Z,4.20
2023-05-06T05:00:06.417Z,3.70
2023-05-06T05:01:06.745Z,3.00
2023-05-06T05:02:07.115Z,3.70
2023-05-06T05:03:07.448Z,3.70
2023-05-06T05:04:07.524Z,3.10
2023-05-06T05:05:08.284Z,4.10
2023-05-06T05:06:08.168Z,4.20
2023-05-06T05:07:08.521Z,3.20
2023-05-06T05:08:08.709Z,4.40
2023-05-06T05:09:08.959Z,4.30
2023-05-06T05:10:10.732Z,4.00
2023-05-06T05:11:09.533Z,4.20
2023-05-06T05:12:09.747Z,3.70
2023-05-06T05:13:10.243Z,3.70
2023-05-06T05:14:10.392Z,4.30
2023-05-06T05:15:10.990Z,3.90
2023-05-06T05:16:10.980Z,3.60
2023-05-06T05:17:11.244Z,5.00
2023-05-06T05:18:11.431Z,3.80
2023-05-06T05:19:11.759Z,3.70
2023-05-06T05:20:12.001Z,3.50
2023-05-06T05:21:12.205Z,4.20
2023-05-06T05:22:12.530Z,4.60
2023-05-06T05:23:12.782Z,4.10
2023-05-06T05:24:13.113Z,3.20
2023-05-06T05:25:13.735Z,4.00
2023-05-06T05:26:13.714Z,4.40
2023-05-06T05:27:14.066Z,3.70
2023-05-06T05:28:14.319Z,3.40
2023-05-06T05:29:14.611Z,3.30
2023-05-06T05:30:14.838Z,4.40
2023-05-06T05:31:15.143Z,3.70
2023-05-06T05:32:15.404Z,4.30
2023-05-06T05:33:15.666Z,3.70
2023-05-06T05:34:15.860Z,3.70
2023-05-06T05:35:16.113Z,3.80
2023-05-06T05:36:16.341Z,3.60
2023-05-06T05:37:16.610Z,3.70
2023-05-06T05:38:16.874Z,3.50
2023-05-06T05:39:17.163Z,3.60
2023-05-06T05:40:17.455Z,4.70
2023-05-06T05:41:17.795Z,3.80
2023-05-06T05:42:18.009Z,3.50
2023-05-06T05:43:18.293Z,3.40
2023-05-06T05:44:18.597Z,3.80
2023-05-06T05:45:18.869Z,4.40
2023-05-06T05:46:19.195Z,3.40
2023-05-06T05:47:19.455Z,3.80
2023-05-06T05:48:19.764Z,3.70
2023-05-06T05:49:20.083Z,4.00
2023-05-06T05:50:20.393Z,3.80
2023-05-06T05:51:20.700Z,4.00
2023-05-06T05:52:21.024Z,3.70
2023-05-06T05:53:21.356Z,3.20
2023-05-06T05:54:21.684Z,4.10
2023-05-06T05:55:22.006Z,4.70
2023-05-06T05:56:22.326Z,4.10
2023-05-06T05:57:22.631Z,3.40
2023-05-06T05:58:22.947Z,4.10
2023-05-06T05:59:23.284Z,3.90
2023-05-06T06:00:23.615Z,3.40
2023-05-06T06:01:23.891Z,3.50
2023-05-06T06:02:24.313Z,4.80
2023-05-06T06:03:24.594Z,4.30
2023-05-06T06:04:24.802Z,4.60
2023-05-06T06:05:25.121Z,3.40
2023-05-06T06:06:25.429Z,4.00
2023-05-06T06:07:25.808Z,4.20
2023-05-06T06:08:26.068Z,4.50
2023-05-06T06:09:26.389Z,4.50
2023-05-06T06:10:26.773Z,3.60
2023-05-06T06:11:27.074Z,3.80
2023-05-06T06:12:27.426Z,5.20
2023-05-06T06:13:28.936Z,4.10
2023-05-06T06:14:28.035Z,3.50
2023-05-06T06:15:28.365Z,3.50
2023-05-06T06:16:28.790Z,3.80
2023-05-06T06:17:29.009Z,4.00
2023-05-06T06:18:29.200Z,4.50
2023-05-06T06:19:29.536Z,3.50
2023-05-06T06:20:29.897Z,3.80
2023-05-06T06:21:30.124Z,4.30
2023-05-06T06:22:30.343Z,3.90
2023-05-06T06:23:30.694Z,3.60
2023-05-06T06:24:30.953Z,3.60
2023-05-06T06:25:31.162Z,4.30
2023-05-06T06:26:31.367Z,4.20
2023-05-06T06:27:31.716Z,3.50
2023-05-06T06:28:32.056Z,4.30
2023-05-06T06:29:32.399Z,3.80
2023-05-06T06:30:32.737Z,3.90
2023-05-06T06:31:33.093Z,3.70
2023-05-06T06:32:33.462Z,4.60
2023-05-06T06:33:33.783Z,4.00
2023-05-06T06:34:34.014Z,4.00
2023-05-06T06:35:35.695Z,3.70
2023-05-06T06:36:34.480Z,3.80
2023-05-06T06:37:34.709Z,3.30
2023-05-06T06:38:35.043Z,3.30
2023-05-06T06:39:35.411Z,3.70
2023-05-06T06:40:35.639Z,4.10
2023-05-06T06:41:35.827Z,3.90
2023-05-06T06:42:36.177Z,3.80
2023-05-06T06:43:36.406Z,4.30
2023-05-06T06:44:36.776Z,4.30
2023-05-06T06:45:37.017Z,4.50
2023-05-06T06:46:37.321Z,4.30
2023-05-06T06:47:37.748Z,4.20
2023-05-06T06:48:37.947Z,4.90
2023-05-06T06:49:38.190Z,4.20
2023-05-06T06:50:38.415Z,3.70
2023-05-06T06:51:38.757Z,4.30
2023-05-06T06:52:39.090Z,4.40
2023-05-06T06:53:39.470Z,4.30
2023-05-06T06:54:39.710Z,3.90
2023-05-06T06:55:40.081Z,4.10
2023-05-06T06:56:40.285Z,4.70
2023-05-06T06:57:40.515Z,4.20
2023-05-06T06:58:40.858Z,3.40
2023-05-06T06:59:41.196Z,3.70
2023-05-06T07:00:41.531Z,3.60
2023-05-06T07:01:42.718Z,4.60
2023-05-06T07:02:42.332Z,3.90
2023-05-06T07:03:42.691Z,3.80
2023-05-06T07:04:42.899Z,4.50
2023-05-06T07:05:43.125Z,4.00
2023-05-06T07:06:43.448Z,4.60
2023-05-06T07:07:43.795Z,5.10
2023-05-06T07:08:44.128Z,4.70
2023-05-06T07:09:44.595Z,4.50
2023-05-06T07:10:44.765Z,5.00
2023-05-06T07:11:45.102Z,4.30
2023-05-06T07:12:45.517Z,4.30
2023-05-06T07:13:45.660Z,4.10
2023-05-06T07:14:45.957Z,4.50
2023-05-06T07:15:46.667Z,4.10
2023-05-06T07:16:47.663Z,4.20
2023-05-06T07:17:46.862Z,3.90
2023-05-06T07:18:47.173Z,3.90
2023-05-06T07:19:47.487Z,4.00
2023-05-06T07:20:47.784Z,4.40
2023-05-06T07:21:48.121Z,3.90
2023-05-06T07:22:49.239Z,4.10
2023-05-06T07:23:48.729Z,4.00
2023-05-06T07:24:49.067Z,5.40
2023-05-06T07:25:49.419Z,4.10
2023-05-06T07:26:49.749Z,4.20
2023-05-06T07:27:50.836Z,4.40
2023-05-06T07:28:50.354Z,4.10
2023-05-06T07:29:51.483Z,3.70
2023-05-06T07:30:51.027Z,4.40
2023-05-06T07:31:51.357Z,3.90
2023-05-06T07:32:51.590Z,4.10
2023-05-06T07:33:51.905Z,4.20
2023-05-06T07:34:52.270Z,3.70
2023-05-06T07:35:52.501Z,3.70
2023-05-06T07:36:52.724Z,3.40
2023-05-06T07:37:53.078Z,4.00
2023-05-06T07:38:53.990Z,3.80
2023-05-06T07:39:53.662Z,3.90
2023-05-06T07:40:53.921Z,5.10
2023-05-06T07:41:54.096Z,4.40
2023-05-06T07:42:54.435Z,4.20
2023-05-06T07:43:54.770Z,4.00
2023-05-06T07:44:55.105Z,4.10
2023-05-06T07:45:55.450Z,4.40
2023-05-06T07:46:55.814Z,4.30
2023-05-06T07:47:56.074Z,4.30
2023-05-06T07:48:56.338Z,4.80
2023-05-06T07:49:56.621Z,6.80
2023-05-06T07:50:56.879Z,4.40
2023-05-06T07:51:57.174Z,4.10
2023-05-06T07:52:57.438Z,5.10
2023-05-06T07:53:57.689Z,5.80
2023-05-06T07:54:57.940Z,5.60
2023-05-06T07:55:58.207Z,5.20
2023-05-06T07:56:58.425Z,5.10
2023-05-06T07:57:58.769Z,5.90
2023-05-06T07:58:59.012Z,5.10
2023-05-06T07:59:59.252Z,5.40
2023-05-06T08:00:59.529Z,4.80
2023-05-06T08:01:59.762Z,5.10
2023-05-06T08:03:00.188Z,6.20
2023-05-06T08:04:00.346Z,5.60
2023-05-06T08:05:00.553Z,4.60
2023-05-06T08:06:00.802Z,4.10
2023-05-06T08:07:01.026Z,4.50
2023-05-06T08:08:01.288Z,4.40
2023-05-06T08:09:01.528Z,5.90
2023-05-06T08:10:01.794Z,4.70
2023-05-06T08:11:02.062Z,4.40
2023-05-06T08:12:02.311Z,5.00
2023-05-06T08:13:02.645Z,4.70
2023-05-06T08:14:02.896Z,4.70
2023-05-06T08:15:03.153Z,5.20
2023-05-06T08:16:03.495Z,4.80
2023-05-06T08:17:03.763Z,4.10
2023-05-06T08:18:13.819Z,5.20
2023-05-06T08:19:05.338Z,4.60
2023-05-06T08:20:04.548Z,4.60
2023-05-06T08:21:04.895Z,4.90
2023-05-06T08:22:05.216Z,3.90
2023-05-06T08:23:05.514Z,4.90
2023-05-06T08:24:05.825Z,4.20
2023-05-06T08:25:06.146Z,4.20
2023-05-06T08:26:06.472Z,3.70
2023-05-06T08:27:06.802Z,4.10
2023-05-06T08:28:07.122Z,4.30
2023-05-06T08:29:07.417Z,4.40
2023-05-06T08:30:07.757Z,4.00
2023-05-06T08:31:08.082Z,3.70
2023-05-06T08:32:08.497Z,4.00
2023-05-06T08:33:08.778Z,5.20
2023-05-06T08:34:09.066Z,3.50
2023-05-06T08:35:09.796Z,3.70
2023-05-06T08:36:09.670Z,3.40
2023-05-06T08:37:09.980Z,3.70
2023-05-06T08:38:10.281Z,3.80
2023-05-06T08:39:10.642Z,3.50
2023-05-06T08:40:10.958Z,3.80
2023-05-06T08:41:11.273Z,4.40
2023-05-06T08:42:11.591Z,4.20
2023-05-06T08:43:11.931Z,3.80
2023-05-06T08:44:12.227Z,3.50
2023-05-06T08:45:12.644Z,4.50
2023-05-06T08:46:13.012Z,3.70
2023-05-06T08:47:13.090Z,3.90
2023-05-06T08:48:13.464Z,3.90
2023-05-06T08:49:13.657Z,3.80
2023-05-06T08:50:14.008Z,3.50
2023-05-06T08:51:14.287Z,3.70
2023-05-06T08:52:14.608Z,3.50
2023-05-06T08:53:14.920Z,4.00
2023-05-06T08:54:15.240Z,3.60
2023-05-06T08:55:15.637Z,3.80
2023-05-06T08:56:15.856Z,4.70
2023-05-06T08:57:16.167Z,4.20
2023-05-06T08:58:16.470Z,4.00
2023-05-06T08:59:16.771Z,3.70
2023-05-06T09:00:17.099Z,3.70
2023-05-06T09:01:17.445Z,3.80
2023-05-06T09:02:17.660Z,5.00
2023-05-06T09:03:18.131Z,4.70
2023-05-06T09:04:18.332Z,4.10
2023-05-06T09:05:18.502Z,3.70
2023-05-06T09:06:18.766Z,4.40
2023-05-06T09:07:19.057Z,4.40
2023-05-06T09:08:19.338Z,4.60
2023-05-06T09:09:19.647Z,4.00
2023-05-06T09:10:20.019Z,4.20
2023-05-06T09:11:20.411Z,3.80
2023-05-06T09:12:20.549Z,3.50
2023-05-06T09:13:20.869Z,4.00
2023-05-06T09:14:21.091Z,3.90
2023-05-06T09:15:21.378Z,3.80
2023-05-06T09:16:21.687Z,3.90
2023-05-06T09:17:21.950Z,3.80
2023-05-06T09:18:22.171Z,4.60
2023-05-06T09:19:22.513Z,3.50
2023-05-06T09:20:22.756Z,3.90
2023-05-06T09:21:22.981Z,4.00
2023-05-06T09:22:23.250Z,4.60
2023-05-06T09:23:23.527Z,4.00
2023-05-06T09:24:23.791Z,3.70
2023-05-06T09:25:24.026Z,3.80
2023-05-06T09:26:24.291Z,4.00
2023-05-06T09:27:24.524Z,3.70
2023-05-06T09:28:24.796Z,4.20
2023-05-06T09:29:25.064Z,3.90
2023-05-06T09:30:25.316Z,4.50
2023-05-06T09:31:25.610Z,4.00
2023-05-06T09:32:25.986Z,4.70
2023-05-06T09:33:26.210Z,3.80
2023-05-06T09:34:26.484Z,3.60
2023-05-06T09:35:26.724Z,3.90
2023-05-06T09:36:27.031Z,3.90
2023-05-06T09:37:27.292Z,4.70
2023-05-06T09:38:27.491Z,4.10
2023-05-06T09:39:27.878Z,3.40
2023-05-06T09:40:28.096Z,3.90
2023-05-06T09:41:28.365Z,3.80
2023-05-06T09:42:28.606Z,3.90
2023-05-06T09:43:28.877Z,4.30
2023-05-06T09:44:29.123Z,3.70
2023-05-06T09:45:29.379Z,4.10
2023-05-06T09:46:29.658Z,4.60
2023-05-06T09:47:29.908Z,3.50
2023-05-06T09:48:30.116Z,3.30
2023-05-06T09:49:30.465Z,3.70
2023-05-06T09:50:30.733Z,3.80
2023-05-06T09:51:31.010Z,3.70
2023-05-06T09:52:31.336Z,3.60
2023-05-06T09:54:56.607Z,4.00
2023-05-06T09:55:56.617Z,4.00
2023-05-06T09:56:58.825Z,3.70
2023-05-06T09:57:58.176Z,3.50
2023-05-06T09:58:57.632Z,3.70
2023-05-06T10:01:19.225Z,5.00
2023-05-06T10:02:14.973Z,5.10
2023-05-06T10:03:14.273Z,5.00
2023-05-06T10:04:14.528Z,5.10
2023-05-06T10:05:15.135Z,4.20
2023-05-06T10:06:14.914Z,3.80
2023-05-06T10:07:15.285Z,3.90
2023-05-06T10:08:15.433Z,3.80
2023-05-06T10:09:15.727Z,3.60
2023-05-06T10:10:16.105Z,4.00
2023-05-06T10:11:16.296Z,3.30
2023-05-06T10:12:16.954Z,3.40
2023-05-06T10:13:17.078Z,3.40
2023-05-06T10:14:17.413Z,4.20
2023-05-06T10:15:17.594Z,3.50
2023-05-06T10:16:17.967Z,3.50
2023-05-06T10:17:18.173Z,4.30
2023-05-06T10:18:18.489Z,3.60
2023-05-06T10:19:18.908Z,3.80
2023-05-06T10:20:19.120Z,3.60
2023-05-06T10:21:19.451Z,3.70
2023-05-06T10:22:20.085Z,3.60
2023-05-06T10:23:20.340Z,3.60
2023-05-06T10:24:20.177Z,3.30
2023-05-06T10:25:20.497Z,2.90
2023-05-06T10:26:20.835Z,3.10
2023-05-06T10:27:21.093Z,3.30
2023-05-06T10:28:30.904Z,3.50
2023-05-06T10:29:22.631Z,3.40
2023-05-06T10:30:22.167Z,3.20
2023-05-06T10:31:22.357Z,3.70
2023-05-06T10:32:23.177Z,3.70
2023-05-06T10:33:23.348Z,3.30
2023-05-06T10:34:23.168Z,4.20
2023-05-06T10:35:23.574Z,3.00
2023-05-06T10:36:23.926Z,3.20
2023-05-06T10:37:24.082Z,3.70
2023-05-06T10:38:24.459Z,3.70
2023-05-06T10:39:24.813Z,3.10
2023-05-06T10:40:25.255Z,3.60
2023-05-06T10:41:25.279Z,3.70
2023-05-06T10:42:26.694Z,3.40
2023-05-06T10:43:25.761Z,3.00
2023-05-06T10:44:26.079Z,3.00
2023-05-06T10:45:26.455Z,3.70
2023-05-06T10:46:26.755Z,4.50
2023-05-06T10:47:27.103Z,4.70
2023-05-06T10:48:27.447Z,3.60
2023-05-06T10:49:27.783Z,4.10
2023-05-06T10:50:28.135Z,2.90
2023-05-06T10:51:28.340Z,3.10
2023-05-06T10:52:28.600Z,3.20
2023-05-06T10:53:28.807Z,2.90
2023-05-06T10:54:29.061Z,3.00
2023-05-06T10:55:29.473Z,3.10
2023-05-06T10:56:29.725Z,2.70
2023-05-06T10:57:29.902Z,2.90
2023-05-06T10:58:30.202Z,2.80
2023-05-06T10:59:30.586Z,2.60
2023-05-06T11:00:30.717Z,3.00
2023-05-06T11:01:31.073Z,3.90
2023-05-06T11:02:31.377Z,3.80
2023-05-06T11:03:31.587Z,3.40
2023-05-06T11:04:31.884Z,2.90
2023-05-06T11:05:32.129Z,2.60
2023-05-06T11:06:32.415Z,3.20
2023-05-06T11:07:32.644Z,2.40
2023-05-06T11:08:32.890Z,2.90
2023-05-06T11:09:33.194Z,2.60
2023-05-06T11:10:33.473Z,2.70
2023-05-06T11:11:33.698Z,3.90
2023-05-06T11:12:34.005Z,2.80
2023-05-06T11:13:34.246Z,3.00
2023-05-06T11:14:34.526Z,2.60
2023-05-06T11:15:34.826Z,3.20
2023-05-06T11:16:36.094Z,2.70
2023-05-06T11:17:35.406Z,3.20
2023-05-06T11:18:35.648Z,2.70
2023-05-06T11:19:35.891Z,3.20
2023-05-06T11:20:36.234Z,2.70
2023-05-06T11:21:36.444Z,2.50
2023-05-06T11:22:36.712Z,2.70
2023-05-06T11:23:37.005Z,2.60
2023-05-06T11:24:37.276Z,2.40
2023-05-06T11:25:37.552Z,2.50
2023-05-06T11:26:37.817Z,2.70
2023-05-06T11:27:38.143Z,5.10
2023-05-06T11:28:38.421Z,2.20
2023-05-06T11:29:38.696Z,2.90
2023-05-06T11:30:38.994Z,2.60
2023-05-06T11:31:39.311Z,2.80
2023-05-06T11:32:39.511Z,2.30
2023-05-06T11:33:39.819Z,2.40
2023-05-06T11:34:40.073Z,2.60
2023-05-06T11:35:40.428Z,2.50
2023-05-06T11:36:40.643Z,2.70
2023-05-06T11:37:41.056Z,3.00
2023-05-06T11:38:41.191Z,3.00
2023-05-06T11:39:41.385Z,2.70
2023-05-06T11:40:43.147Z,3.00
2023-05-06T11:41:41.965Z,2.50
2023-05-06T11:42:42.242Z,2.90
2023-05-06T11:43:42.521Z,3.00
2023-05-06T11:44:42.785Z,2.40
2023-05-06T11:45:43.009Z,3.10
2023-05-06T11:46:43.909Z,2.20
2023-05-06T11:47:43.612Z,3.00
2023-05-06T11:48:44.279Z,2.80
2023-05-06T11:49:44.067Z,2.80
2023-05-06T11:50:44.460Z,3.10
2023-05-06T11:51:44.717Z,2.70
2023-05-06T11:52:45.668Z,2.30
2023-05-06T11:53:45.845Z,2.80
2023-05-06T11:54:45.501Z,2.40
2023-05-06T11:55:45.883Z,3.30
2023-05-06T11:56:46.141Z,2.60
2023-05-06T11:57:46.414Z,3.00
2023-05-06T11:58:46.685Z,2.70
2023-05-06T11:59:46.892Z,3.20
2023-05-06T12:00:49.046Z,2.90
2023-05-06T12:01:47.467Z,2.40
2023-05-06T12:02:47.862Z,3.00
2023-05-06T12:03:48.273Z,2.80
2023-05-06T12:04:48.378Z,3.20
2023-05-06T12:05:48.646Z,2.90
2023-05-06T12:06:48.866Z,2.80
2023-05-06T12:07:49.083Z,2.90
2023-05-06T12:08:49.430Z,2.90
2023-05-06T12:09:49.815Z,3.80
2023-05-06T12:10:50.154Z,2.90
2023-05-06T12:11:50.366Z,2.70
2023-05-06T12:12:50.744Z,2.70
2023-05-06T12:13:50.934Z,2.80
2023-05-06T12:14:51.308Z,2.40
2023-05-06T12:15:55.828Z,2.20
2023-05-06T12:16:53.050Z,2.30
2023-05-06T12:17:52.187Z,2.60
2023-05-06T12:18:52.397Z,3.10
2023-05-06T12:19:52.691Z,2.70
2023-05-06T12:20:52.915Z,2.10
2023-05-06T12:21:53.190Z,2.30
2023-05-06T12:22:54.987Z,2.30
2023-05-06T12:23:53.772Z,2.20
2023-05-06T12:24:53.996Z,2.60
2023-05-06T12:25:54.243Z,2.30
2023-05-06T12:26:54.491Z,2.30
2023-05-06T12:27:56.774Z,2.50
2023-05-06T12:28:55.111Z,2.90
2023-05-06T12:29:55.366Z,2.50
2023-05-06T12:30:55.632Z,2.50
2023-05-06T12:31:55.965Z,2.60
2023-05-06T12:32:56.208Z,2.30
2023-05-06T12:33:58.010Z,2.40
2023-05-06T12:34:56.763Z,2.40
2023-05-06T12:35:57.027Z,2.60
2023-05-06T12:36:57.295Z,2.60
2023-05-06T12:37:57.506Z,2.60
2023-05-06T12:38:57.790Z,2.50
2023-05-06T12:39:59.411Z,3.00
2023-05-06T12:40:58.304Z,2.80
2023-05-06T12:41:58.584Z,2.60
2023-05-06T12:42:58.847Z,2.10
2023-05-06T12:43:59.107Z,2.60
2023-05-06T12:44:59.357Z,2.60
2023-05-06T12:45:59.646Z,2.70
2023-05-06T12:46:59.868Z,2.40
2023-05-06T12:48:00.196Z,2.80
2023-05-06T12:49:00.487Z,2.70
2023-05-06T12:50:01.105Z,2.60
2023-05-06T12:51:01.082Z,2.30
2023-05-06T12:52:01.362Z,2.80
2023-05-06T12:53:01.607Z,2.80
2023-05-06T12:54:01.854Z,2.50
2023-05-06T12:55:02.156Z,2.70
2023-05-06T12:56:02.382Z,2.70
2023-05-06T12:57:02.677Z,2.80
2023-05-06T12:58:02.949Z,2.20
2023-05-06T12:59:03.248Z,2.40
2023-05-06T13:00:03.498Z,1.90
2023-05-06T13:01:03.816Z,3.10
2023-05-06T13:02:04.072Z,2.40
2023-05-06T13:03:04.420Z,2.20
2023-05-06T13:04:04.645Z,3.00
2023-05-06T13:05:04.912Z,2.50
2023-05-06T13:06:05.879Z,2.50
2023-05-06T13:07:05.492Z,3.00
2023-05-06T13:08:05.708Z,2.60
2023-05-06T13:09:06.085Z,3.00
2023-05-06T13:10:06.359Z,2.80
2023-05-06T13:11:06.613Z,2.60
2023-05-06T13:12:06.944Z,3.50
2023-05-06T13:13:07.234Z,2.60
2023-05-06T13:14:07.404Z,2.30
2023-05-06T13:15:07.779Z,2.70
2023-05-06T13:16:08.043Z,2.80
2023-05-06T13:17:08.333Z,3.10
2023-05-06T13:18:08.561Z,2.50
2023-05-06T13:19:15.068Z,2.30
2023-05-06T13:20:10.354Z,2.10
2023-05-06T13:21:09.406Z,2.70
2023-05-06T13:22:09.648Z,2.30
2023-05-06T13:23:09.921Z,2.20
2023-05-06T13:24:10.147Z,3.30
2023-05-06T13:25:10.415Z,2.20